OAL293 LGAV-LGKR
Flight info
| Callsign | OAL293 |
|---|---|
| Flight time | 0h 45m |
| Altitude | 26000 |
| Route | KOR UL53 PARNA |
| Aircraft | A320/M-SDE3FGHIRWY/LB1 |
Departure
| Time | 2026-05-05 21:49 |
|---|---|
| Airport | Athens Eleftherios Venizelos International Airport (LGAV) |
Arrival
| Time | 2026-05-05 22:34 |
|---|---|
| Airport | Corfu Ioannis Kapodistrias International Airport (LGKR) |
| Time | Latitude | Longitude | Altitude | Speed | Heading |
|---|---|---|---|---|---|
| 2026-05-05 21:48 | 38.05615 | 23.68495 | 16781 ft | 379 kts | 259° |
| 2026-05-05 21:49 | 38.04958 | 23.65243 | 17424 ft | 381 kts | 259° |
| 2026-05-05 21:49 | 38.04290 | 23.61976 | 18102 ft | 384 kts | 259° |
| 2026-05-05 21:49 | 38.03612 | 23.58690 | 18704 ft | 386 kts | 259° |
| 2026-05-05 21:49 | 38.02958 | 23.55377 | 19272 ft | 388 kts | 261° |
| 2026-05-05 21:50 | 38.02381 | 23.52017 | 19845 ft | 389 kts | 263° |
| 2026-05-05 21:50 | 38.01855 | 23.48635 | 20415 ft | 391 kts | 263° |
| 2026-05-05 21:50 | 38.01350 | 23.45247 | 20963 ft | 393 kts | 264° |
| 2026-05-05 21:50 | 38.00839 | 23.41813 | 21499 ft | 395 kts | 263° |
| 2026-05-05 21:51 | 38.00323 | 23.38425 | 22004 ft | 397 kts | 263° |
| 2026-05-05 21:51 | 37.99782 | 23.34988 | 22514 ft | 399 kts | 263° |
| 2026-05-05 21:51 | 37.99224 | 23.31507 | 23018 ft | 401 kts | 263° |
| 2026-05-05 21:51 | 37.98662 | 23.28025 | 23496 ft | 403 kts | 263° |
| 2026-05-05 21:52 | 37.97718 | 23.22233 | 24111 ft | 404 kts | 263° |
| 2026-05-05 21:52 | 37.96962 | 23.17584 | 24567 ft | 407 kts | 263° |
| 2026-05-05 21:52 | 37.96387 | 23.14058 | 24913 ft | 409 kts | 263° |
| 2026-05-05 21:53 | 37.95811 | 23.10516 | 25274 ft | 411 kts | 263° |
| 2026-05-05 21:53 | 37.95226 | 23.06949 | 25650 ft | 412 kts | 263° |
| 2026-05-05 21:53 | 37.94650 | 23.03414 | 26012 ft | 414 kts | 263° |
| 2026-05-05 21:53 | 37.94131 | 22.99813 | 26368 ft | 413 kts | 269° |
| 2026-05-05 21:54 | 37.94087 | 22.96199 | 26736 ft | 408 kts | 279° |
| 2026-05-05 21:54 | 37.94572 | 22.92722 | 27089 ft | 405 kts | 289° |
| 2026-05-05 21:54 | 37.95590 | 22.89350 | 27418 ft | 404 kts | 298° |
| 2026-05-05 21:54 | 37.97039 | 22.86365 | 27832 ft | 402 kts | 306° |
| 2026-05-05 21:55 | 37.98652 | 22.83468 | 28067 ft | 401 kts | 306° |
| 2026-05-05 21:55 | 38.01853 | 22.77641 | 28104 ft | 403 kts | 306° |
| 2026-05-05 21:56 | 38.05046 | 22.71786 | 28107 ft | 403 kts | 306° |
| 2026-05-05 21:56 | 38.08226 | 22.65968 | 28110 ft | 404 kts | 306° |
| 2026-05-05 21:57 | 38.11441 | 22.60101 | 28109 ft | 404 kts | 306° |
| 2026-05-05 21:57 | 38.14658 | 22.54221 | 28112 ft | 405 kts | 306° |
| 2026-05-05 21:58 | 38.17862 | 22.48355 | 28108 ft | 405 kts | 306° |
| 2026-05-05 21:58 | 38.21057 | 22.42486 | 28109 ft | 405 kts | 306° |
| 2026-05-05 21:59 | 38.24268 | 22.36578 | 28112 ft | 405 kts | 306° |
| 2026-05-05 21:59 | 38.27455 | 22.30695 | 28116 ft | 405 kts | 306° |
| 2026-05-05 22:00 | 38.30662 | 22.24782 | 28115 ft | 405 kts | 306° |
| 2026-05-05 22:00 | 38.33866 | 22.18857 | 28118 ft | 405 kts | 306° |
| 2026-05-05 22:01 | 38.36525 | 22.13932 | 28117 ft | 405 kts | 306° |
| 2026-05-05 22:01 | 38.39704 | 22.08023 | 28123 ft | 406 kts | 306° |
| 2026-05-05 22:02 | 38.43367 | 22.01215 | 28127 ft | 406 kts | 306° |
| 2026-05-05 22:02 | 38.46567 | 21.95254 | 28136 ft | 406 kts | 305° |
| 2026-05-05 22:03 | 38.49747 | 21.89314 | 28142 ft | 406 kts | 305° |
| 2026-05-05 22:03 | 38.52917 | 21.83379 | 28146 ft | 406 kts | 305° |
| 2026-05-05 22:04 | 38.56098 | 21.77418 | 28147 ft | 406 kts | 305° |
| 2026-05-05 22:04 | 38.59273 | 21.71460 | 28142 ft | 405 kts | 305° |
| 2026-05-05 22:05 | 38.62439 | 21.65482 | 28140 ft | 405 kts | 304° |
| 2026-05-05 22:05 | 38.65597 | 21.59519 | 28142 ft | 404 kts | 304° |
| 2026-05-05 22:06 | 38.68756 | 21.53563 | 28149 ft | 406 kts | 304° |
| 2026-05-05 22:06 | 38.71909 | 21.47602 | 28146 ft | 406 kts | 304° |
| 2026-05-05 22:07 | 38.75076 | 21.41594 | 28146 ft | 406 kts | 304° |
| 2026-05-05 22:07 | 38.78231 | 21.35604 | 28140 ft | 406 kts | 304° |
| 2026-05-05 22:08 | 38.81372 | 21.29638 | 28143 ft | 406 kts | 304° |
| 2026-05-05 22:08 | 38.84007 | 21.24627 | 28147 ft | 406 kts | 304° |
| 2026-05-05 22:09 | 38.87160 | 21.18602 | 28138 ft | 407 kts | 304° |
| 2026-05-05 22:09 | 38.90307 | 21.12577 | 28133 ft | 407 kts | 304° |
| 2026-05-05 22:10 | 38.93462 | 21.06531 | 28131 ft | 407 kts | 304° |
| 2026-05-05 22:10 | 38.96618 | 21.00474 | 28138 ft | 407 kts | 304° |
| 2026-05-05 22:11 | 38.99764 | 20.94409 | 28135 ft | 407 kts | 304° |
| 2026-05-05 22:11 | 39.02889 | 20.88380 | 28135 ft | 407 kts | 304° |
| 2026-05-05 22:12 | 39.06030 | 20.82317 | 28134 ft | 407 kts | 304° |
| 2026-05-05 22:12 | 39.09169 | 20.76245 | 28137 ft | 407 kts | 304° |
| 2026-05-05 22:13 | 39.12306 | 20.70163 | 28142 ft | 407 kts | 303° |
| 2026-05-05 22:13 | 39.15444 | 20.64076 | 28147 ft | 408 kts | 304° |
| 2026-05-05 22:13 | 39.17016 | 20.61023 | 27907 ft | 407 kts | 304° |
| 2026-05-05 22:14 | 39.18567 | 20.58005 | 27369 ft | 402 kts | 304° |
| 2026-05-05 22:14 | 39.20102 | 20.55013 | 26817 ft | 397 kts | 303° |
| 2026-05-05 22:14 | 39.21613 | 20.52057 | 26264 ft | 393 kts | 303° |
| 2026-05-05 22:14 | 39.23080 | 20.49182 | 25739 ft | 390 kts | 303° |
| 2026-05-05 22:15 | 39.24593 | 20.46218 | 25173 ft | 386 kts | 303° |
| 2026-05-05 22:15 | 39.26051 | 20.43363 | 24608 ft | 385 kts | 303° |
| 2026-05-05 22:15 | 39.27521 | 20.40485 | 24018 ft | 384 kts | 303° |
| 2026-05-05 22:15 | 39.28997 | 20.37596 | 23375 ft | 384 kts | 303° |
| 2026-05-05 22:16 | 39.30464 | 20.34724 | 22729 ft | 385 kts | 303° |
| 2026-05-05 22:16 | 39.31917 | 20.31864 | 22496 ft | 375 kts | 302° |
| 2026-05-05 22:16 | 39.32956 | 20.28848 | 22368 ft | 364 kts | 284° |
| 2026-05-05 22:16 | 39.33096 | 20.25637 | 22234 ft | 357 kts | 264° |
| 2026-05-05 22:17 | 39.32327 | 20.22621 | 22094 ft | 352 kts | 243° |
| 2026-05-05 22:17 | 39.30881 | 20.20107 | 21957 ft | 345 kts | 234° |
| 2026-05-05 22:17 | 39.29520 | 20.17609 | 21691 ft | 336 kts | 242° |
| 2026-05-05 22:17 | 39.28363 | 20.15014 | 21319 ft | 330 kts | 249° |
| 2026-05-05 22:18 | 39.27559 | 20.12267 | 20925 ft | 324 kts | 259° |
| 2026-05-05 22:18 | 39.27108 | 20.09429 | 20530 ft | 322 kts | 263° |
| 2026-05-05 22:18 | 39.26921 | 20.06576 | 20134 ft | 318 kts | 272° |
| 2026-05-05 22:18 | 39.26934 | 20.03726 | 19741 ft | 317 kts | 275° |
| 2026-05-05 22:19 | 39.27217 | 20.00957 | 19361 ft | 314 kts | 283° |
| 2026-05-05 22:19 | 39.27870 | 19.98278 | 18983 ft | 312 kts | 292° |
| 2026-05-05 22:19 | 39.28806 | 19.95773 | 18607 ft | 310 kts | 301° |
| 2026-05-05 22:19 | 39.29947 | 19.93410 | 18218 ft | 309 kts | 303° |
| 2026-05-05 22:20 | 39.31083 | 19.91077 | 17805 ft | 308 kts | 299° |
| 2026-05-05 22:20 | 39.31730 | 19.88465 | 17417 ft | 308 kts | 275° |
| 2026-05-05 22:20 | 39.31470 | 19.85733 | 17023 ft | 311 kts | 252° |
| 2026-05-05 22:20 | 39.30340 | 19.83353 | 16629 ft | 316 kts | 228° |
| 2026-05-05 22:21 | 39.28609 | 19.81577 | 16231 ft | 319 kts | 217° |
| 2026-05-05 22:21 | 39.26732 | 19.80053 | 15854 ft | 319 kts | 215° |
| 2026-05-05 22:21 | 39.25079 | 19.78256 | 15506 ft | 312 kts | 232° |
| 2026-05-05 22:21 | 39.23697 | 19.76071 | 15145 ft | 310 kts | 234° |
| 2026-05-05 22:22 | 39.22378 | 19.73937 | 14618 ft | 307 kts | 233° |
| 2026-05-05 22:22 | 39.21054 | 19.71788 | 14001 ft | 303 kts | 241° |
| 2026-05-05 22:22 | 39.20328 | 19.69302 | 13376 ft | 294 kts | 266° |
| 2026-05-05 22:22 | 39.20514 | 19.66735 | 12714 ft | 287 kts | 291° |
| 2026-05-05 22:23 | 39.21553 | 19.64580 | 12079 ft | 284 kts | 316° |
| 2026-05-05 22:23 | 39.23069 | 19.62946 | 11404 ft | 284 kts | 322° |
| 2026-05-05 22:23 | 39.24745 | 19.61619 | 10784 ft | 284 kts | 335° |
| 2026-05-05 22:23 | 39.26569 | 19.60644 | 10163 ft | 283 kts | 338° |
| 2026-05-05 22:24 | 39.28418 | 19.59776 | 9527 ft | 282 kts | 341° |
| 2026-05-05 22:24 | 39.30270 | 19.58984 | 8914 ft | 280 kts | 343° |
| 2026-05-05 22:24 | 39.32187 | 19.58748 | 8320 ft | 278 kts | 9° |
| 2026-05-05 22:24 | 39.33938 | 19.59679 | 8000 ft | 266 kts | 34° |
| 2026-05-05 22:25 | 39.35390 | 19.61048 | 7791 ft | 252 kts | 36° |
| 2026-05-05 22:25 | 39.36771 | 19.62390 | 7367 ft | 247 kts | 36° |
| 2026-05-05 22:25 | 39.38088 | 19.63798 | 6883 ft | 245 kts | 51° |
| 2026-05-05 22:25 | 39.38831 | 19.65748 | 6377 ft | 243 kts | 76° |
| 2026-05-05 22:26 | 39.39139 | 19.67868 | 5840 ft | 243 kts | 83° |
| 2026-05-05 22:26 | 39.39344 | 19.70043 | 5469 ft | 244 kts | 84° |
| 2026-05-05 22:26 | 39.39547 | 19.72218 | 5162 ft | 243 kts | 83° |
| 2026-05-05 22:26 | 39.39776 | 19.74400 | 4863 ft | 241 kts | 82° |
| 2026-05-05 22:27 | 39.40014 | 19.76543 | 4546 ft | 240 kts | 82° |
| 2026-05-05 22:27 | 39.40258 | 19.78674 | 4236 ft | 239 kts | 81° |
| 2026-05-05 22:27 | 39.40555 | 19.80783 | 3939 ft | 237 kts | 79° |
| 2026-05-05 22:27 | 39.40878 | 19.82828 | 3810 ft | 227 kts | 78° |
| 2026-05-05 22:28 | 39.41221 | 19.84758 | 3689 ft | 218 kts | 77° |
| 2026-05-05 22:28 | 39.41560 | 19.86630 | 3556 ft | 210 kts | 77° |
| 2026-05-05 22:28 | 39.41887 | 19.88423 | 3426 ft | 201 kts | 77° |
| 2026-05-05 22:28 | 39.42148 | 19.90169 | 3248 ft | 195 kts | 81° |
| 2026-05-05 22:29 | 39.42355 | 19.91887 | 2999 ft | 192 kts | 82° |
| 2026-05-05 22:29 | 39.42766 | 19.93511 | 2914 ft | 191 kts | 51° |
| 2026-05-05 22:29 | 39.43845 | 19.94461 | 2950 ft | 190 kts | 13° |
| 2026-05-05 22:29 | 39.45104 | 19.94465 | 2908 ft | 174 kts | 351° |
| 2026-05-05 22:30 | 39.46222 | 19.94258 | 2917 ft | 158 kts | 353° |
| 2026-05-05 22:30 | 39.47303 | 19.94141 | 2817 ft | 155 kts | 355° |
| 2026-05-05 22:30 | 39.48359 | 19.94054 | 2579 ft | 151 kts | 356° |
| 2026-05-05 22:30 | 39.49408 | 19.93951 | 2350 ft | 150 kts | 353° |
| 2026-05-05 22:31 | 39.50443 | 19.93770 | 2082 ft | 150 kts | 352° |
| 2026-05-05 22:31 | 39.51466 | 19.93535 | 1797 ft | 149 kts | 348° |
| 2026-05-05 22:31 | 39.52475 | 19.93210 | 1571 ft | 149 kts | 345° |
| 2026-05-05 22:31 | 39.53481 | 19.92885 | 1390 ft | 149 kts | 347° |
| 2026-05-05 22:32 | 39.54496 | 19.92641 | 1221 ft | 149 kts | 351° |
| 2026-05-05 22:32 | 39.55517 | 19.92427 | 1069 ft | 148 kts | 348° |
| 2026-05-05 22:32 | 39.56527 | 19.92146 | 836 ft | 148 kts | 348° |
| 2026-05-05 22:32 | 39.57534 | 19.91912 | 577 ft | 145 kts | 349° |
| 2026-05-05 22:33 | 39.58500 | 19.91639 | 305 ft | 144 kts | 349° |
| 2026-05-05 22:33 | 39.59469 | 19.91395 | 50 ft | 139 kts | 349° |
| 2026-05-05 22:33 | 39.60331 | 19.91183 | 7 ft | 104 kts | 348° |
| 2026-05-05 22:33 | 39.60814 | 19.91054 | 8 ft | 54 kts | 348° |
| 2026-05-05 22:34 | 39.60974 | 19.91012 | 5 ft | 15 kts | 350° |
| 2026-05-05 22:34 | 39.61050 | 19.91069 | 6 ft | 11 kts | 71° |
| 2026-05-05 22:34 | 39.61057 | 19.91096 | 9 ft | 2 kts | 75° |
| 2026-05-05 22:34 | 39.61053 | 19.91107 | 7 ft | 2 kts | 133° |
| 2026-05-05 22:35 | 39.61011 | 19.91133 | 8 ft | 9 kts | 165° |
| 2026-05-05 22:35 | 39.60943 | 19.91150 | 8 ft | 11 kts | 169° |
| 2026-05-05 22:35 | 39.60864 | 19.91172 | 7 ft | 9 kts | 168° |
| 2026-05-05 22:35 | 39.60836 | 19.91230 | 8 ft | 9 kts | 89° |
| 2026-05-05 22:36 | 39.60848 | 19.91308 | 8 ft | 3 kts | 77° |
| 2026-05-05 22:36 | 39.60849 | 19.91314 | 8 ft | 0 kts | 77° |